createdAt,value
2022-08-03T00:00:10.900Z,18.18
2022-08-03T00:01:10.136Z,18.13
2022-08-03T00:02:10.136Z,18.13
2022-08-03T00:03:10.239Z,18.11
2022-08-03T00:04:10.121Z,18.04
2022-08-03T00:05:10.333Z,17.97
2022-08-03T00:06:10.089Z,18.05
2022-08-03T00:07:10.090Z,17.97
2022-08-03T00:08:10.099Z,17.94
2022-08-03T00:09:10.118Z,17.98
2022-08-03T00:10:10.089Z,18.03
2022-08-03T00:11:10.075Z,17.85
2022-08-03T00:12:10.138Z,17.86
2022-08-03T00:13:10.058Z,17.85
2022-08-03T00:14:10.075Z,17.85
2022-08-03T00:15:15.116Z,17.76
2022-08-03T00:16:10.047Z,17.79
2022-08-03T00:17:10.038Z,17.78
2022-08-03T00:18:10.025Z,17.74
2022-08-03T00:19:10.012Z,17.72
2022-08-03T00:20:10.006Z,17.67
2022-08-03T00:21:10.020Z,17.65
2022-08-03T00:22:10.181Z,17.71
2022-08-03T00:23:10.014Z,17.57
2022-08-03T00:24:10.036Z,17.52
2022-08-03T00:25:09.999Z,17.51
2022-08-03T00:26:10.018Z,17.54
2022-08-03T00:27:10.022Z,17.57
2022-08-03T00:28:09.984Z,17.64
2022-08-03T00:29:09.988Z,17.54
2022-08-03T00:30:10.014Z,17.56
2022-08-03T00:31:13.517Z,17.52
2022-08-03T00:32:10.982Z,17.60
2022-08-03T00:33:09.952Z,17.57
2022-08-03T00:34:09.939Z,17.49
2022-08-03T00:35:16.348Z,17.52
2022-08-03T00:36:09.949Z,17.46
2022-08-03T00:37:09.947Z,17.42
2022-08-03T00:38:09.923Z,17.38
2022-08-03T00:39:09.928Z,17.42
2022-08-03T00:40:09.941Z,17.54
2022-08-03T00:41:09.909Z,17.45
2022-08-03T00:42:10.020Z,17.42
2022-08-03T00:43:09.910Z,17.44
2022-08-03T00:44:09.929Z,17.41
2022-08-03T00:45:09.891Z,17.38
2022-08-03T00:46:09.944Z,17.44
2022-08-03T00:47:09.887Z,17.44
2022-08-03T00:48:19.683Z,17.39
2022-08-03T00:49:09.920Z,17.44
2022-08-03T00:50:09.881Z,17.39
2022-08-03T00:51:09.871Z,17.34
2022-08-03T00:52:09.898Z,17.24
2022-08-03T00:53:09.873Z,17.29
2022-08-03T00:54:09.875Z,17.29
2022-08-03T00:55:09.866Z,17.24
2022-08-03T00:56:10.043Z,17.24
2022-08-03T00:57:09.834Z,17.29
2022-08-03T00:58:09.828Z,17.29
2022-08-03T00:59:09.823Z,17.20
2022-08-03T01:00:09.823Z,17.20
2022-08-03T01:01:09.849Z,17.19
2022-08-03T01:02:09.878Z,17.14
2022-08-03T01:03:09.789Z,17.11
2022-08-03T01:04:09.821Z,17.12
2022-08-03T01:05:09.798Z,17.16
2022-08-03T01:06:09.788Z,17.15
2022-08-03T01:07:10.827Z,17.11
2022-08-03T01:08:09.779Z,17.14
2022-08-03T01:09:09.800Z,17.15
2022-08-03T01:10:09.763Z,17.14
2022-08-03T01:11:09.969Z,17.09
2022-08-03T01:12:09.821Z,17.08
2022-08-03T01:14:00.246Z,17.08
2022-08-03T01:14:18.904Z,17.09
2022-08-03T01:15:09.921Z,17.06
2022-08-03T01:16:09.933Z,17.04
2022-08-03T01:17:09.720Z,17.09
2022-08-03T01:18:09.719Z,17.08
2022-08-03T01:19:09.700Z,17.09
2022-08-03T01:20:09.702Z,17.14
2022-08-03T01:21:09.914Z,17.14
2022-08-03T01:22:10.124Z,17.12
2022-08-03T01:23:09.919Z,17.14
2022-08-03T01:24:09.707Z,17.14
2022-08-03T01:25:09.675Z,17.12
2022-08-03T01:26:09.700Z,17.09
2022-08-03T01:27:09.696Z,17.11
2022-08-03T01:28:09.691Z,17.15
2022-08-03T01:29:09.668Z,17.09
2022-08-03T01:30:09.650Z,17.08
2022-08-03T01:31:09.657Z,17.12
2022-08-03T01:33:02.686Z,17.12
2022-08-03T01:33:10.138Z,17.14
2022-08-03T01:34:12.205Z,17.12
2022-08-03T01:35:09.661Z,17.24
2022-08-03T01:36:09.635Z,17.23
2022-08-03T01:37:09.626Z,17.20
2022-08-03T01:38:09.617Z,17.19
2022-08-03T01:39:09.641Z,17.19
2022-08-03T01:40:09.623Z,17.19
2022-08-03T01:41:09.595Z,17.19
2022-08-03T01:42:09.646Z,17.16
2022-08-03T01:43:09.784Z,17.16
2022-08-03T01:44:27.290Z,17.19
2022-08-03T01:45:09.579Z,17.20
2022-08-03T01:46:09.551Z,17.12
2022-08-03T01:47:09.569Z,17.09
2022-08-03T01:48:09.578Z,17.11
2022-08-03T01:49:09.707Z,17.15
2022-08-03T01:50:09.536Z,17.08
2022-08-03T01:51:09.693Z,17.05
2022-08-03T01:52:09.723Z,17.01
2022-08-03T01:53:09.627Z,17.02
2022-08-03T01:54:09.818Z,17.06
2022-08-03T01:55:09.734Z,17.01
2022-08-03T01:56:09.986Z,16.96
2022-08-03T01:57:09.662Z,16.93
2022-08-03T01:58:09.696Z,16.93
2022-08-03T01:59:09.825Z,16.94
2022-08-03T02:00:09.736Z,16.87
2022-08-03T02:01:09.753Z,16.91
2022-08-03T02:02:28.009Z,16.81
2022-08-03T02:03:09.728Z,16.86
2022-08-03T02:04:09.736Z,16.84
2022-08-03T02:05:10.959Z,16.84
2022-08-03T02:07:01.615Z,16.84
2022-08-03T02:07:09.814Z,16.83
2022-08-03T02:08:09.831Z,16.81
2022-08-03T02:09:09.541Z,16.83
2022-08-03T02:10:09.659Z,16.78
2022-08-03T02:11:09.671Z,16.87
2022-08-03T02:12:09.578Z,16.83
2022-08-03T02:13:09.610Z,16.84
2022-08-03T02:14:09.793Z,16.79
2022-08-03T02:15:09.642Z,16.79
2022-08-03T02:16:09.434Z,16.84
2022-08-03T02:17:09.505Z,16.76
2022-08-03T02:18:09.630Z,16.79
2022-08-03T02:19:09.362Z,16.83
2022-08-03T02:20:09.821Z,16.84
2022-08-03T02:21:11.295Z,16.90
2022-08-03T02:22:09.614Z,16.84
2022-08-03T02:23:09.668Z,16.90
2022-08-03T02:24:09.348Z,16.90
2022-08-03T02:25:09.672Z,16.86
2022-08-03T02:26:09.596Z,16.91
2022-08-03T02:27:09.553Z,16.97
2022-08-03T02:28:09.667Z,16.91
2022-08-03T02:29:09.627Z,16.90
2022-08-03T02:30:09.584Z,16.96
2022-08-03T02:31:09.533Z,16.91
2022-08-03T02:32:09.659Z,16.90
2022-08-03T02:33:09.498Z,16.99
2022-08-03T02:34:09.866Z,16.86
2022-08-03T02:35:09.291Z,16.78
2022-08-03T02:36:09.544Z,16.79
2022-08-03T02:37:09.615Z,16.84
2022-08-03T02:38:09.541Z,16.86
2022-08-03T02:39:09.669Z,16.79
2022-08-03T02:40:09.278Z,16.87
2022-08-03T02:41:09.500Z,16.84
2022-08-03T02:42:09.612Z,16.87
2022-08-03T02:43:09.559Z,16.79
2022-08-03T02:44:09.662Z,16.81
2022-08-03T02:45:09.655Z,16.84
2022-08-03T02:46:09.247Z,16.86
2022-08-03T02:47:09.454Z,16.72
2022-08-03T02:48:09.370Z,16.78
2022-08-03T02:49:49.891Z,16.90
2022-08-03T02:50:09.608Z,16.81
2022-08-03T02:51:09.427Z,16.76
2022-08-03T02:52:13.204Z,16.79
2022-08-03T02:53:09.215Z,16.75
2022-08-03T02:54:09.188Z,16.76
2022-08-03T02:55:09.430Z,16.84
2022-08-03T02:56:09.434Z,16.81
2022-08-03T02:57:09.427Z,16.86
2022-08-03T02:58:09.484Z,16.86
2022-08-03T02:59:09.391Z,16.81
2022-08-03T03:00:09.398Z,16.84
2022-08-03T03:01:09.159Z,16.83
2022-08-03T03:02:09.281Z,16.83
2022-08-03T03:03:09.421Z,16.86
2022-08-03T03:04:09.350Z,16.75
2022-08-03T03:05:55.894Z,16.79
2022-08-03T03:06:09.337Z,16.83
2022-08-03T03:07:09.353Z,16.74
2022-08-03T03:08:18.535Z,16.84
2022-08-03T03:09:09.266Z,16.81
2022-08-03T03:10:09.750Z,16.75
2022-08-03T03:11:09.334Z,16.81
2022-08-03T03:12:09.336Z,16.83
2022-08-03T03:13:09.344Z,16.79
2022-08-03T03:14:09.377Z,16.75
2022-08-03T03:15:09.305Z,16.83
2022-08-03T03:16:09.244Z,16.78
2022-08-03T03:17:09.397Z,16.76
2022-08-03T03:18:09.550Z,16.87
2022-08-03T03:19:09.198Z,16.78
2022-08-03T03:20:09.230Z,16.76
2022-08-03T03:21:09.245Z,16.78
2022-08-03T03:22:09.313Z,16.74
2022-08-03T03:23:09.359Z,16.72
2022-08-03T03:24:09.211Z,16.68
2022-08-03T03:25:09.274Z,16.60
2022-08-03T03:26:09.220Z,16.57
2022-08-03T03:27:09.251Z,16.56
2022-08-03T03:28:09.428Z,16.65
2022-08-03T03:29:09.242Z,16.58
2022-08-03T03:30:09.228Z,16.60
2022-08-03T03:31:08.981Z,16.56
2022-08-03T03:32:09.365Z,16.58
2022-08-03T03:33:09.230Z,16.53
2022-08-03T03:34:09.154Z,16.47
2022-08-03T03:35:08.935Z,16.53
2022-08-03T03:36:09.215Z,16.47
2022-08-03T03:37:09.375Z,16.47
2022-08-03T03:38:09.277Z,16.38
2022-08-03T03:39:15.789Z,16.39
2022-08-03T03:40:08.935Z,16.42
2022-08-03T03:41:08.912Z,16.42
2022-08-03T03:42:08.963Z,16.39
2022-08-03T03:43:08.893Z,16.41
2022-08-03T03:44:08.897Z,16.39
2022-08-03T03:45:08.889Z,16.39
2022-08-03T03:46:08.874Z,16.36
2022-08-03T03:47:08.946Z,16.41
2022-08-03T03:48:08.870Z,16.33
2022-08-03T03:49:08.945Z,16.33
2022-08-03T03:50:08.865Z,16.20
2022-08-03T03:51:08.844Z,16.23
2022-08-03T03:52:08.912Z,16.26
2022-08-03T03:53:09.321Z,16.24
2022-08-03T03:54:08.829Z,16.21
2022-08-03T03:55:08.824Z,16.24
2022-08-03T03:56:08.812Z,16.20
2022-08-03T03:57:08.804Z,16.32
2022-08-03T03:58:09.024Z,16.42
2022-08-03T03:59:08.803Z,16.39
2022-08-03T04:00:08.800Z,16.50
2022-08-03T04:01:08.882Z,16.53
2022-08-03T04:02:08.782Z,16.58
2022-08-03T04:03:08.779Z,16.64
2022-08-03T04:04:08.992Z,16.64
2022-08-03T04:05:08.772Z,16.76
2022-08-03T04:06:08.761Z,16.76
2022-08-03T04:07:08.761Z,16.78
2022-08-03T04:08:08.744Z,16.86
2022-08-03T04:09:08.759Z,16.89
2022-08-03T04:10:14.194Z,16.86
2022-08-03T04:11:08.724Z,17.05
2022-08-03T04:12:08.718Z,17.08
2022-08-03T04:13:08.726Z,17.19
2022-08-03T04:14:08.734Z,17.46
2022-08-03T04:15:08.705Z,17.46
2022-08-03T04:16:08.701Z,17.52
2022-08-03T04:17:08.685Z,17.74
2022-08-03T04:18:08.699Z,17.76
2022-08-03T04:19:08.884Z,17.80
2022-08-03T04:20:08.670Z,17.82
2022-08-03T04:21:08.672Z,17.89
2022-08-03T04:22:08.665Z,17.86
2022-08-03T04:23:15.427Z,18.01
2022-08-03T04:24:08.651Z,17.89
2022-08-03T04:25:08.657Z,18.01
2022-08-03T04:26:08.655Z,18.04
2022-08-03T04:27:08.845Z,18.03
2022-08-03T04:28:29.435Z,18.00
2022-08-03T04:29:08.629Z,18.01
2022-08-03T04:30:08.623Z,17.98
2022-08-03T04:31:08.616Z,17.94
2022-08-03T04:32:08.606Z,18.01
2022-08-03T04:33:08.635Z,17.98
2022-08-03T04:34:08.587Z,17.94
2022-08-03T04:35:08.595Z,17.95
2022-08-03T04:36:08.583Z,18.00
2022-08-03T04:37:08.587Z,17.98
2022-08-03T04:38:08.575Z,18.03
2022-08-03T04:39:08.586Z,17.92
2022-08-03T04:40:08.556Z,17.90
2022-08-03T04:41:08.580Z,18.04
2022-08-03T04:42:09.273Z,18.00
2022-08-03T04:43:08.563Z,17.95
2022-08-03T04:44:08.541Z,18.01
2022-08-03T04:45:08.551Z,18.11
2022-08-03T04:46:08.532Z,18.19
2022-08-03T04:47:08.525Z,18.25
2022-08-03T04:48:08.517Z,18.20
2022-08-03T04:49:08.608Z,18.16
2022-08-03T04:50:12.536Z,18.20
2022-08-03T04:51:08.512Z,18.07
2022-08-03T04:52:08.495Z,18.15
2022-08-03T04:53:08.504Z,18.03
2022-08-03T04:54:08.496Z,18.01
2022-08-03T04:55:08.485Z,18.08
2022-08-03T04:56:08.474Z,18.15
2022-08-03T04:57:08.476Z,18.23
2022-08-03T04:58:08.467Z,18.20
2022-08-03T04:59:08.465Z,18.23
2022-08-03T05:00:08.454Z,18.16
2022-08-03T05:01:08.452Z,18.19
2022-08-03T05:02:08.525Z,18.31
2022-08-03T05:03:20.187Z,18.44
2022-08-03T05:04:08.646Z,18.62
2022-08-03T05:05:08.436Z,18.68
2022-08-03T05:06:10.995Z,18.77
2022-08-03T05:07:11.667Z,18.80
2022-08-03T05:08:11.085Z,18.77
2022-08-03T05:09:08.619Z,18.80
2022-08-03T05:10:10.174Z,18.86
2022-08-03T05:11:08.411Z,19.14
2022-08-03T05:12:08.391Z,19.21
2022-08-03T05:13:08.595Z,19.27
2022-08-03T05:14:08.383Z,19.39
2022-08-03T05:15:08.402Z,19.41
2022-08-03T05:16:08.650Z,19.47
2022-08-03T05:17:08.370Z,19.41
2022-08-03T05:18:13.359Z,19.45
2022-08-03T05:19:08.359Z,19.33
2022-08-03T05:20:08.365Z,19.34
2022-08-03T05:21:08.349Z,19.26
2022-08-03T05:22:08.344Z,19.19
2022-08-03T05:23:08.343Z,19.19
2022-08-03T05:24:08.345Z,19.08
2022-08-03T05:25:08.786Z,19.18
2022-08-03T05:26:08.327Z,19.14
2022-08-03T05:27:08.326Z,19.00
2022-08-03T05:28:08.326Z,18.96
2022-08-03T05:29:08.310Z,18.88
2022-08-03T05:30:30.701Z,18.84
2022-08-03T05:31:08.306Z,19.04
2022-08-03T05:32:08.568Z,19.12
2022-08-03T05:33:08.295Z,19.16
2022-08-03T05:34:08.302Z,19.12
2022-08-03T05:36:01.413Z,19.22
2022-08-03T05:36:08.282Z,19.33
2022-08-03T05:37:08.283Z,19.34
2022-08-03T05:38:09.257Z,19.44
2022-08-03T05:39:08.536Z,19.37
2022-08-03T05:40:08.294Z,19.26
2022-08-03T05:41:22.724Z,19.21
2022-08-03T05:42:08.257Z,19.27
2022-08-03T05:43:08.275Z,19.31
2022-08-03T05:44:08.249Z,19.33
2022-08-03T05:45:08.246Z,19.34
2022-08-03T05:46:12.845Z,19.49
2022-08-03T05:47:08.237Z,19.63
2022-08-03T05:48:08.222Z,19.74
2022-08-03T05:49:08.279Z,19.76
2022-08-03T05:50:08.215Z,19.73
2022-08-03T05:51:08.221Z,19.59
2022-08-03T05:52:13.085Z,19.63
2022-08-03T05:53:08.483Z,19.76
2022-08-03T05:54:08.221Z,19.81
2022-08-03T05:55:08.197Z,19.92
2022-08-03T05:56:13.890Z,19.91
2022-08-03T05:57:08.197Z,20.10
2022-08-03T05:58:08.190Z,20.06
2022-08-03T05:59:35.885Z,20.21
2022-08-03T06:00:08.168Z,20.11
2022-08-03T06:01:08.302Z,20.16
2022-08-03T06:02:08.481Z,20.31
2022-08-03T06:03:08.155Z,20.32
2022-08-03T06:04:08.159Z,20.32
2022-08-03T06:05:08.194Z,20.34
2022-08-03T06:06:08.175Z,20.39
2022-08-03T06:07:08.336Z,20.26
2022-08-03T06:08:08.140Z,20.24
2022-08-03T06:09:08.140Z,20.32
2022-08-03T06:10:35.403Z,20.31
2022-08-03T06:11:08.137Z,20.21
2022-08-03T06:12:11.174Z,20.41
2022-08-03T06:13:08.119Z,20.29
2022-08-03T06:14:08.132Z,20.36
2022-08-03T06:15:08.310Z,20.39
2022-08-03T06:16:08.139Z,20.50
2022-08-03T06:17:08.133Z,20.58
2022-08-03T06:18:08.104Z,20.74
2022-08-03T06:19:08.082Z,20.81
2022-08-03T06:20:08.081Z,20.84
2022-08-03T06:21:14.366Z,20.93
2022-08-03T06:22:08.092Z,20.90
2022-08-03T06:23:08.097Z,20.90
2022-08-03T06:24:08.245Z,20.82
2022-08-03T06:25:10.232Z,20.70
2022-08-03T06:26:08.093Z,20.84
2022-08-03T06:27:08.054Z,21.06
2022-08-03T06:28:15.029Z,21.20
2022-08-03T06:29:08.639Z,21.35
2022-08-03T06:30:08.046Z,21.50
2022-08-03T06:31:08.035Z,21.69
2022-08-03T06:32:08.035Z,21.64
2022-08-03T06:33:08.397Z,21.66
2022-08-03T06:34:32.099Z,21.72
2022-08-03T06:35:08.046Z,21.76
2022-08-03T06:36:08.062Z,21.54
2022-08-03T06:37:08.045Z,21.55
2022-08-03T06:38:08.010Z,21.33
2022-08-03T06:39:08.116Z,21.46
2022-08-03T06:40:08.030Z,21.51
2022-08-03T06:41:08.006Z,21.72
2022-08-03T06:42:08.001Z,21.85
2022-08-03T06:43:12.201Z,22.06
2022-08-03T06:44:08.035Z,22.17
2022-08-03T06:45:08.360Z,22.32
2022-08-03T06:46:08.177Z,22.41
2022-08-03T06:47:07.993Z,22.29
2022-08-03T06:48:08.006Z,22.22
2022-08-03T06:49:08.265Z,22.39
2022-08-03T06:50:16.620Z,22.44
2022-08-03T06:51:07.977Z,22.50
2022-08-03T06:52:07.955Z,22.60
2022-08-03T06:53:07.969Z,22.63
2022-08-03T06:54:07.970Z,22.59
2022-08-03T06:55:07.950Z,22.76
2022-08-03T06:56:08.158Z,22.85
2022-08-03T06:57:07.951Z,22.85
2022-08-03T06:58:07.938Z,22.90
2022-08-03T06:59:07.949Z,23.03
2022-08-03T07:00:12.106Z,23.20
2022-08-03T07:01:07.996Z,23.27
2022-08-03T07:02:07.926Z,23.39
2022-08-03T07:03:07.946Z,23.43
2022-08-03T07:04:07.942Z,23.51
2022-08-03T07:05:07.956Z,23.51
2022-08-03T07:06:07.915Z,23.55
2022-08-03T07:07:07.935Z,23.55
2022-08-03T07:08:07.909Z,23.69
2022-08-03T07:09:08.102Z,23.68
2022-08-03T07:10:07.892Z,23.80
2022-08-03T07:11:07.905Z,23.84
2022-08-03T07:12:07.929Z,23.95
2022-08-03T07:13:07.916Z,24.06
2022-08-03T07:14:07.902Z,24.14
2022-08-03T07:15:07.901Z,24.30
2022-08-03T07:16:07.945Z,24.51
2022-08-03T07:17:11.679Z,24.73
2022-08-03T07:18:07.876Z,24.70
2022-08-03T07:19:07.862Z,24.65
2022-08-03T07:20:07.865Z,24.77
2022-08-03T07:21:07.880Z,24.95
2022-08-03T07:22:07.879Z,25.07
2022-08-03T07:23:07.861Z,25.23
2022-08-03T07:24:07.848Z,25.43
2022-08-03T07:25:07.845Z,25.48
2022-08-03T07:26:07.866Z,25.60
2022-08-03T07:27:07.876Z,25.77
2022-08-03T07:28:07.849Z,25.69
2022-08-03T07:29:14.763Z,25.70
2022-08-03T07:30:07.889Z,25.84
2022-08-03T07:31:07.893Z,25.75
2022-08-03T07:32:07.856Z,25.96
2022-08-03T07:33:07.869Z,25.98
2022-08-03T07:34:07.847Z,25.75
2022-08-03T07:35:08.710Z,25.77
2022-08-03T07:36:07.843Z,25.63
2022-08-03T07:37:07.820Z,25.62
2022-08-03T07:38:07.825Z,25.51
2022-08-03T07:39:15.994Z,25.55
2022-08-03T07:40:07.857Z,25.69
2022-08-03T07:41:07.822Z,25.84
2022-08-03T07:42:07.828Z,26.05
2022-08-03T07:43:07.812Z,26.06
2022-08-03T07:44:07.831Z,26.22
2022-08-03T07:45:07.815Z,26.51
2022-08-03T07:46:07.829Z,26.65
2022-08-03T07:47:07.832Z,26.78
2022-08-03T07:48:12.142Z,26.83
2022-08-03T07:49:07.903Z,26.92
2022-08-03T07:50:08.804Z,26.95
2022-08-03T07:51:07.968Z,26.96
2022-08-03T07:52:08.043Z,27.03
2022-08-03T07:53:07.806Z,27.32
2022-08-03T07:54:07.827Z,27.29
2022-08-03T07:55:07.823Z,27.42
2022-08-03T07:56:11.362Z,27.45
2022-08-03T07:57:08.142Z,27.45
2022-08-03T07:58:07.954Z,27.35
2022-08-03T07:59:07.829Z,27.12
2022-08-03T08:00:07.788Z,27.18
2022-08-03T08:01:07.828Z,27.25
2022-08-03T08:02:07.808Z,27.33
2022-08-03T08:03:07.768Z,27.60
2022-08-03T08:04:07.807Z,27.71
2022-08-03T08:05:07.780Z,27.75
2022-08-03T08:06:07.783Z,27.90
2022-08-03T08:07:07.773Z,27.98
2022-08-03T08:08:07.771Z,27.87
2022-08-03T08:09:07.768Z,27.89
2022-08-03T08:10:07.770Z,27.68
2022-08-03T08:11:07.791Z,27.83
2022-08-03T08:12:14.372Z,27.78
2022-08-03T08:13:07.775Z,27.82
2022-08-03T08:14:07.761Z,28.05
2022-08-03T08:15:07.782Z,28.22
2022-08-03T08:16:07.750Z,28.48
2022-08-03T08:17:07.768Z,28.52
2022-08-03T08:18:07.750Z,28.62
2022-08-03T08:19:07.792Z,28.74
2022-08-03T08:20:07.768Z,28.67
2022-08-03T08:21:08.682Z,28.45
2022-08-03T08:22:07.757Z,28.44
2022-08-03T08:23:19.931Z,28.63
2022-08-03T08:24:13.302Z,28.82
2022-08-03T08:25:07.780Z,29.04
2022-08-03T08:26:07.761Z,29.08
2022-08-03T08:27:07.759Z,29.34
2022-08-03T08:28:29.875Z,29.57
2022-08-03T08:29:07.755Z,29.49
2022-08-03T08:30:11.521Z,29.66
2022-08-03T08:31:07.749Z,29.75
2022-08-03T08:32:07.767Z,29.72
2022-08-03T08:33:08.743Z,29.60
2022-08-03T08:34:07.746Z,29.44
2022-08-03T08:35:07.754Z,29.66
2022-08-03T08:36:12.022Z,29.65
2022-08-03T08:37:07.762Z,29.86
2022-08-03T08:38:07.748Z,30.19
2022-08-03T08:39:07.737Z,30.57
2022-08-03T08:40:07.770Z,30.81
2022-08-03T08:41:07.748Z,30.77
2022-08-03T08:42:07.746Z,30.81
2022-08-03T08:43:07.783Z,30.84
2022-08-03T08:44:07.758Z,30.88
2022-08-03T08:45:07.774Z,30.91
2022-08-03T08:46:07.790Z,30.68
2022-08-03T08:47:07.758Z,30.70
2022-08-03T08:48:08.458Z,30.81
2022-08-03T08:49:07.825Z,30.80
2022-08-03T08:50:15.544Z,30.80
2022-08-03T08:51:07.751Z,30.96
2022-08-03T08:52:25.338Z,31.24
2022-08-03T08:53:09.639Z,31.40
2022-08-03T08:54:07.785Z,31.24
2022-08-03T08:55:07.775Z,31.18
2022-08-03T08:56:07.779Z,31.25
2022-08-03T08:57:26.584Z,31.28
2022-08-03T08:58:07.783Z,31.18
2022-08-03T08:59:07.800Z,31.40
2022-08-03T09:00:07.778Z,31.34
2022-08-03T09:01:07.857Z,31.14
2022-08-03T09:02:07.777Z,31.05
2022-08-03T09:03:07.779Z,31.28
2022-08-03T09:04:07.876Z,31.28
2022-08-03T09:05:07.882Z,31.33
2022-08-03T09:06:07.780Z,31.44
2022-08-03T09:07:19.713Z,31.33
2022-08-03T09:08:07.797Z,31.46
2022-08-03T09:09:07.799Z,31.29
2022-08-03T09:10:12.770Z,31.28
2022-08-03T09:11:07.781Z,31.15
2022-08-03T09:12:35.404Z,31.28
2022-08-03T09:13:07.812Z,31.31
2022-08-03T09:14:07.802Z,31.22
2022-08-03T09:15:17.010Z,30.90
2022-08-03T09:16:07.814Z,31.02
2022-08-03T09:17:07.992Z,31.03
2022-08-03T09:18:07.837Z,31.20
2022-08-03T09:19:07.805Z,31.27
2022-08-03T09:20:07.798Z,31.47
2022-08-03T09:21:29.623Z,31.65
2022-08-03T09:22:07.814Z,31.78
2022-08-03T09:23:24.979Z,31.73
2022-08-03T09:24:16.396Z,31.92
2022-08-03T09:25:24.272Z,32.15
2022-08-03T09:26:09.120Z,32.18
2022-08-03T09:27:07.843Z,32.38
2022-08-03T09:28:07.824Z,32.53
2022-08-03T09:29:13.236Z,32.29
2022-08-03T09:30:07.870Z,32.26
2022-08-03T09:31:07.798Z,32.29
2022-08-03T09:32:07.801Z,32.29
2022-08-03T09:33:08.401Z,32.12
2022-08-03T09:34:07.832Z,32.26
2022-08-03T09:35:09.478Z,32.12
2022-08-03T09:36:08.041Z,31.93
2022-08-03T09:37:08.030Z,31.89
2022-08-03T09:38:12.085Z,31.85
2022-08-03T09:39:07.835Z,31.84
2022-08-03T09:40:08.335Z,31.70
2022-08-03T09:41:07.832Z,31.74
2022-08-03T09:42:07.828Z,31.84
2022-08-03T09:43:07.829Z,31.90
2022-08-03T09:44:07.840Z,32.04
2022-08-03T09:45:07.834Z,31.92
2022-08-03T09:46:07.874Z,31.78
2022-08-03T09:47:07.876Z,31.89
2022-08-03T09:48:08.131Z,31.96
2022-08-03T09:49:11.566Z,32.16
2022-08-03T09:50:07.863Z,32.37
2022-08-03T09:51:13.252Z,32.51
2022-08-03T09:52:27.385Z,32.73
2022-08-03T09:53:07.826Z,32.83
2022-08-03T09:54:16.314Z,32.97
2022-08-03T09:55:07.876Z,32.92
2022-08-03T09:56:36.404Z,32.83
2022-08-03T09:57:08.130Z,32.64
2022-08-03T09:58:07.836Z,32.75
2022-08-03T09:59:07.871Z,32.89
2022-08-03T10:00:08.536Z,32.95
2022-08-03T10:01:08.019Z,33.17
2022-08-03T10:02:07.858Z,33.08
2022-08-03T10:03:07.861Z,33.02
2022-08-03T10:04:08.130Z,33.01
2022-08-03T10:05:07.877Z,33.15
2022-08-03T10:06:07.877Z,33.47
2022-08-03T10:07:07.906Z,33.79
2022-08-03T10:08:07.865Z,34.02
2022-08-03T10:09:07.882Z,34.05
2022-08-03T10:10:30.838Z,34.01
2022-08-03T10:11:07.879Z,34.14
2022-08-03T10:12:07.913Z,34.25
2022-08-03T10:13:08.082Z,34.38
2022-08-03T10:14:07.882Z,34.48
2022-08-03T10:15:07.883Z,34.25
2022-08-03T10:16:25.197Z,34.35
2022-08-03T10:17:07.886Z,34.45
2022-08-03T10:18:07.895Z,34.48
2022-08-03T10:19:07.921Z,34.38
2022-08-03T10:20:07.927Z,34.36
2022-08-03T10:21:08.086Z,34.16
2022-08-03T10:22:07.926Z,33.55
2022-08-03T10:23:07.909Z,33.34
2022-08-03T10:24:07.922Z,33.15
2022-08-03T10:25:07.909Z,32.90
2022-08-03T10:26:07.944Z,32.96
2022-08-03T10:27:07.936Z,33.19
2022-08-03T10:28:07.916Z,33.46
2022-08-03T10:29:10.072Z,33.58
2022-08-03T10:30:07.934Z,33.71
2022-08-03T10:31:07.920Z,33.86
2022-08-03T10:32:07.952Z,34.24
2022-08-03T10:33:15.280Z,34.36
2022-08-03T10:34:07.995Z,34.51
2022-08-03T10:35:19.619Z,34.55
2022-08-03T10:36:07.957Z,34.86
2022-08-03T10:37:07.963Z,34.45
2022-08-03T10:38:07.925Z,34.45
2022-08-03T10:39:15.927Z,34.52
2022-08-03T10:40:07.936Z,34.71
2022-08-03T10:41:08.193Z,34.70
2022-08-03T10:42:14.675Z,34.93
2022-08-03T10:43:07.961Z,34.99
2022-08-03T10:44:08.306Z,34.52
2022-08-03T10:45:07.951Z,33.96
2022-08-03T10:46:07.950Z,33.68
2022-08-03T10:47:08.004Z,33.64
2022-08-03T10:48:09.397Z,33.84
2022-08-03T10:49:08.053Z,33.68
2022-08-03T10:50:07.965Z,33.61
2022-08-03T10:51:07.995Z,33.61
2022-08-03T10:52:13.661Z,33.77
2022-08-03T10:53:08.010Z,33.87
2022-08-03T10:54:12.012Z,33.79
2022-08-03T10:55:10.758Z,33.67
2022-08-03T10:56:08.605Z,33.43
2022-08-03T10:57:14.243Z,33.64
2022-08-03T11:02:07.997Z,33.52
2022-08-03T11:03:08.038Z,33.61
2022-08-03T11:04:11.940Z,33.58
2022-08-03T11:05:08.011Z,33.37
2022-08-03T11:06:10.624Z,33.28
2022-08-03T11:07:08.011Z,33.36
2022-08-03T11:08:08.068Z,33.39
2022-08-03T11:09:08.432Z,33.34
2022-08-03T11:10:10.573Z,33.37
2022-08-03T11:11:08.043Z,33.49
2022-08-03T11:12:08.059Z,33.58
2022-08-03T11:13:08.048Z,33.62
2022-08-03T11:14:08.050Z,33.59
2022-08-03T11:15:08.035Z,33.49
2022-08-03T11:16:12.472Z,33.58
2022-08-03T11:17:08.045Z,33.46
2022-08-03T11:18:11.601Z,33.45
2022-08-03T11:19:08.105Z,33.37
2022-08-03T11:20:08.078Z,33.34
2022-08-03T11:21:08.858Z,33.30
2022-08-03T11:22:08.086Z,33.37
2022-08-03T11:23:10.662Z,33.49
2022-08-03T11:24:08.048Z,33.49
2022-08-03T11:25:08.049Z,33.57
2022-08-03T11:26:08.051Z,33.76
2022-08-03T11:27:08.062Z,33.53
2022-08-03T11:28:08.078Z,33.62
2022-08-03T11:29:08.067Z,33.76
2022-08-03T11:30:08.952Z,33.80
2022-08-03T11:31:08.088Z,33.89
2022-08-03T11:32:08.063Z,33.95
2022-08-03T11:33:08.066Z,33.89
2022-08-03T11:38:08.096Z,33.89
2022-08-03T11:39:08.088Z,34.13
2022-08-03T11:40:08.111Z,34.25
2022-08-03T11:41:08.088Z,34.21
2022-08-03T11:42:08.357Z,34.23
2022-08-03T11:43:08.346Z,34.33
2022-08-03T11:44:08.102Z,34.48
2022-08-03T11:45:08.107Z,34.48
2022-08-03T11:46:08.124Z,34.36
2022-08-03T11:47:08.094Z,34.39
2022-08-03T11:48:08.100Z,34.36
2022-08-03T11:49:10.726Z,34.39
2022-08-03T11:50:08.223Z,34.47
2022-08-03T11:51:11.161Z,34.33
2022-08-03T11:52:08.127Z,33.99
2022-08-03T11:53:08.127Z,34.01
2022-08-03T11:54:08.122Z,34.06
2022-08-03T11:55:08.127Z,33.89
2022-08-03T11:56:12.520Z,33.77
2022-08-03T11:57:08.141Z,33.73
2022-08-03T11:59:01.446Z,33.73
2022-08-03T11:59:20.470Z,33.58
2022-08-03T12:00:08.176Z,33.40
2022-08-03T12:01:08.132Z,33.39
2022-08-03T12:02:08.148Z,33.58
2022-08-03T12:03:08.273Z,33.68
2022-08-03T12:04:08.350Z,33.89
2022-08-03T12:05:08.164Z,33.89
2022-08-03T12:06:08.136Z,33.83
2022-08-03T12:07:08.144Z,33.81
2022-08-03T12:08:08.156Z,33.61
2022-08-03T12:09:08.176Z,33.76
2022-08-03T12:10:08.183Z,33.84
2022-08-03T12:11:08.182Z,34.01
2022-08-03T12:12:08.171Z,34.02
2022-08-03T12:14:26.889Z,34.01
2022-08-03T12:14:50.468Z,34.03
2022-08-03T12:15:08.182Z,34.13
2022-08-03T12:16:08.224Z,33.98
2022-08-03T12:17:08.176Z,33.92
2022-08-03T12:18:08.170Z,33.84
2022-08-03T12:19:08.187Z,33.99
2022-08-03T12:20:08.188Z,34.21
2022-08-03T12:21:08.184Z,34.17
2022-08-03T12:22:08.190Z,34.36
2022-08-03T12:23:08.197Z,34.27
2022-08-03T12:24:08.314Z,34.21
2022-08-03T12:25:08.194Z,34.16
2022-08-03T12:26:08.207Z,34.16
2022-08-03T12:27:08.253Z,34.39
2022-08-03T12:28:37.388Z,34.39
2022-08-03T12:29:08.199Z,34.40
2022-08-03T12:30:08.415Z,34.42
2022-08-03T12:31:08.199Z,34.35
2022-08-03T12:32:08.211Z,34.17
2022-08-03T12:33:08.207Z,34.30
2022-08-03T12:34:08.249Z,34.39
2022-08-03T12:35:08.240Z,34.38
2022-08-03T12:36:08.231Z,34.47
2022-08-03T12:37:22.263Z,34.38
2022-08-03T12:38:08.221Z,34.45
2022-08-03T12:39:08.230Z,34.45
2022-08-03T12:40:10.539Z,34.45
2022-08-03T12:41:08.239Z,34.57
2022-08-03T12:42:08.237Z,34.78
2022-08-03T12:43:08.240Z,34.67
2022-08-03T12:44:08.235Z,34.73
2022-08-03T12:45:08.239Z,34.61
2022-08-03T12:46:08.260Z,34.60
2022-08-03T12:47:08.239Z,34.48
2022-08-03T12:48:08.243Z,34.51
2022-08-03T12:49:08.407Z,34.70
2022-08-03T12:50:08.246Z,34.64
2022-08-03T12:51:08.473Z,34.60
2022-08-03T12:52:08.259Z,34.62
2022-08-03T12:53:09.148Z,34.66
2022-08-03T12:54:08.254Z,34.74
2022-08-03T12:55:08.257Z,34.58
2022-08-03T12:56:08.264Z,34.57
2022-08-03T12:57:08.466Z,34.57
2022-08-03T12:58:08.272Z,34.62
2022-08-03T12:59:08.299Z,34.62
2022-08-03T13:00:21.798Z,34.61